createdAt,value
2023-04-11T00:01:01.761Z,51.67
2023-04-11T00:03:30.594Z,45.67
2023-04-11T00:05:59.398Z,50.33
2023-04-11T00:08:28.068Z,50.67
2023-04-11T00:10:56.799Z,57.33
2023-04-11T00:13:24.214Z,15.50
2023-04-11T00:15:55.644Z,55.00
2023-04-11T00:18:25.906Z,56.00
2023-04-11T00:20:54.516Z,59.33
2023-04-11T00:23:23.027Z,53.67
2023-04-11T00:25:51.887Z,48.00
2023-04-11T00:28:20.555Z,55.33
2023-04-11T00:30:49.328Z,53.00
2023-04-11T00:33:17.177Z,47.50
2023-04-11T00:35:45.161Z,52.00
2023-04-11T00:38:13.809Z,52.00
2023-04-11T00:40:43.411Z,51.33
2023-04-11T00:43:11.322Z,50.50
2023-04-11T00:45:39.366Z,49.00
2023-04-11T00:48:08.303Z,43.33
2023-04-11T00:50:41.321Z,52.50
2023-04-11T00:53:12.769Z,49.00
2023-04-11T00:55:41.530Z,42.67
2023-04-11T00:58:09.428Z,48.50
2023-04-11T01:00:38.850Z,49.00
2023-04-11T01:03:08.613Z,50.00
2023-04-11T01:05:37.781Z,46.00
2023-04-11T01:08:05.758Z,47.50
2023-04-11T01:10:33.808Z,50.67
2023-04-11T01:13:02.021Z,40.00
2023-04-11T01:15:31.170Z,44.33
2023-04-11T01:18:02.402Z,50.67
2023-04-11T01:20:31.989Z,48.00
2023-04-11T01:23:02.068Z,43.00
2023-04-11T01:25:29.790Z,43.33
2023-04-11T01:27:58.571Z,50.33
2023-04-11T01:30:25.570Z,40.50
2023-04-11T01:32:52.474Z,37.00
2023-04-11T01:35:21.884Z,39.67
2023-04-11T01:37:50.539Z,43.33
2023-04-11T01:40:19.698Z,36.50
2023-04-11T01:42:49.323Z,38.33
2023-04-11T01:45:18.814Z,45.67
2023-04-11T01:47:47.932Z,42.67
2023-04-11T01:50:18.261Z,43.00
2023-04-11T01:52:48.515Z,40.67
2023-04-11T01:55:17.674Z,46.00
2023-04-11T01:57:44.659Z,40.00
2023-04-11T02:00:14.022Z,44.00
2023-04-11T02:02:42.827Z,44.33
2023-04-11T02:05:12.054Z,42.33
2023-04-11T02:07:39.976Z,35.00
2023-04-11T02:10:08.278Z,38.50
2023-04-11T02:12:36.131Z,30.00
2023-04-11T02:15:04.175Z,42.00
2023-04-11T02:17:33.072Z,40.00
2023-04-11T02:20:01.903Z,43.67
2023-04-11T02:22:30.605Z,43.33
2023-04-11T02:24:58.395Z,37.50
2023-04-11T02:27:26.911Z,48.67
2023-04-11T02:29:54.859Z,34.50
2023-04-11T02:32:23.032Z,42.00
2023-04-11T02:34:50.049Z,39.00
2023-04-11T02:37:17.885Z,37.00
2023-04-11T02:39:44.687Z,43.00
2023-04-11T02:42:13.402Z,49.67
2023-04-11T02:44:41.417Z,39.00
2023-04-11T02:47:09.608Z,47.00
2023-04-11T02:49:37.483Z,48.50
2023-04-11T02:52:05.314Z,40.00
2023-04-11T02:54:33.920Z,41.67
2023-04-11T02:57:03.865Z,42.00
2023-04-11T02:59:32.071Z,43.33
2023-04-11T03:02:02.903Z,54.00
2023-04-11T03:04:31.337Z,38.50
2023-04-11T03:07:00.136Z,43.00
2023-04-11T03:09:27.478Z,37.50
2023-04-11T03:11:55.468Z,34.00
2023-04-11T03:14:23.491Z,47.50
2023-04-11T03:16:52.416Z,39.33
2023-04-11T03:19:21.258Z,47.33
2023-04-11T03:21:52.184Z,45.00
2023-04-11T03:24:19.455Z,42.00
2023-04-11T03:26:46.608Z,50.50
2023-04-11T03:29:14.911Z,37.00
2023-04-11T03:31:43.847Z,33.50
2023-04-11T03:34:11.996Z,36.50
2023-04-11T03:36:38.809Z,33.00
2023-04-11T03:39:07.344Z,48.67
2023-04-11T03:41:36.228Z,33.00
2023-04-11T03:44:05.052Z,35.33
2023-04-11T03:46:33.320Z,32.00
2023-04-11T03:49:01.064Z,38.67
2023-04-11T03:51:28.865Z,27.50
2023-04-11T03:53:56.883Z,36.00
2023-04-11T03:56:23.979Z,44.50
2023-04-11T03:58:51.614Z,37.67
2023-04-11T04:01:19.203Z,32.50
2023-04-11T04:03:47.118Z,45.00
2023-04-11T04:06:15.688Z,43.50
2023-04-11T04:08:43.714Z,44.00
2023-04-11T04:11:11.772Z,44.50
2023-04-11T04:13:39.587Z,45.00
2023-04-11T04:16:07.160Z,31.50
2023-04-11T04:18:36.446Z,54.33
2023-04-11T04:21:04.428Z,47.00
2023-04-11T04:23:33.272Z,41.67
2023-04-11T04:26:02.493Z,79.00
2023-04-11T04:28:31.351Z,77.00
2023-04-11T04:31:02.394Z,88.00
2023-04-11T04:33:33.254Z,82.50
2023-04-11T04:36:02.530Z,84.00
2023-04-11T04:38:32.329Z,78.67
2023-04-11T04:41:00.651Z,78.50
2023-04-11T04:43:32.427Z,69.50
2023-04-11T04:45:59.691Z,69.00
2023-04-11T04:48:26.786Z,65.50
2023-04-11T04:50:55.392Z,73.00
2023-04-11T04:53:23.434Z,70.00
2023-04-11T04:55:50.753Z,71.00
2023-04-11T04:58:17.757Z,69.00
2023-04-11T05:00:49.658Z,80.00
2023-04-11T05:03:17.548Z,70.00
2023-04-11T05:05:45.746Z,68.50
2023-04-11T05:08:13.608Z,75.00
2023-04-11T05:10:41.088Z,77.50
2023-04-11T05:13:08.855Z,67.50
2023-04-11T05:15:36.078Z,69.00
2023-04-11T05:18:03.122Z,70.50
2023-04-11T05:20:30.017Z,71.00
2023-04-11T05:22:58.119Z,68.50
2023-04-11T05:25:27.232Z,66.00
2023-04-11T05:27:54.993Z,73.50
2023-04-11T05:30:22.946Z,69.50
2023-04-11T05:32:50.106Z,69.50
2023-04-11T05:35:17.210Z,66.00
2023-04-11T05:37:44.835Z,71.00
2023-04-11T05:40:12.980Z,66.33
2023-04-11T05:42:40.771Z,62.00
2023-04-11T05:45:08.232Z,63.00
2023-04-11T05:47:36.141Z,71.50
2023-04-11T05:50:04.277Z,60.50
2023-04-11T05:52:32.350Z,63.00
2023-04-11T05:55:01.574Z,70.00
2023-04-11T05:57:29.378Z,68.50
2023-04-11T05:59:58.045Z,63.67
2023-04-11T06:02:28.043Z,68.67
2023-04-11T06:04:56.714Z,66.00
2023-04-11T06:07:24.659Z,62.00
2023-04-11T06:09:53.297Z,62.67
2023-04-11T06:12:21.507Z,68.50
2023-04-11T06:14:49.471Z,64.50
2023-04-11T06:17:16.321Z,59.00
2023-04-11T06:19:44.180Z,69.50
2023-04-11T06:22:14.434Z,64.00
2023-04-11T06:24:42.827Z,64.50
2023-04-11T06:27:11.154Z,70.00
2023-04-11T06:29:39.913Z,61.00
2023-04-11T06:32:08.477Z,48.00
2023-04-11T06:34:36.214Z,54.50
2023-04-11T06:37:06.687Z,45.33
2023-04-11T06:39:34.646Z,44.50
2023-04-11T06:42:03.936Z,49.00
2023-04-11T06:44:32.720Z,62.00
2023-04-11T06:47:01.918Z,47.67
2023-04-11T06:49:30.837Z,39.67
2023-04-11T06:51:59.605Z,32.00
2023-04-11T06:54:27.594Z,43.50
2023-04-11T06:56:57.369Z,41.50
2023-04-11T06:59:27.423Z,47.67
2023-04-11T07:01:56.131Z,45.67
2023-04-11T07:04:23.236Z,41.00
2023-04-11T07:06:51.637Z,38.33
2023-04-11T07:09:23.005Z,42.00
2023-04-11T07:11:50.903Z,35.00
2023-04-11T07:14:19.510Z,40.67
2023-04-11T07:16:48.083Z,41.67
2023-04-11T07:19:16.585Z,34.67
2023-04-11T07:21:45.373Z,29.33
2023-04-11T07:24:13.480Z,30.67
2023-04-11T07:26:42.542Z,33.00
2023-04-11T07:29:12.342Z,29.00
2023-04-11T07:31:42.241Z,24.50
2023-04-11T07:34:10.184Z,25.50
2023-04-11T07:36:38.674Z,34.00
2023-04-11T07:39:09.386Z,36.67
2023-04-11T07:41:37.546Z,27.33
2023-04-11T07:44:09.784Z,34.00
2023-04-11T07:46:37.659Z,23.00
2023-04-11T07:49:04.669Z,27.00
2023-04-11T07:51:33.313Z,25.50
2023-04-11T07:54:00.303Z,29.00
2023-04-11T07:56:28.235Z,27.00
2023-04-11T07:58:57.227Z,31.00
2023-04-11T08:01:27.029Z,28.50
2023-04-11T08:03:55.323Z,29.00
2023-04-11T08:06:24.317Z,28.00
2023-04-11T08:08:52.020Z,30.67
2023-04-11T08:11:20.688Z,33.33
2023-04-11T08:13:49.744Z,35.33
2023-04-11T08:16:16.664Z,33.50
2023-04-11T08:18:45.761Z,25.00
2023-04-11T08:21:14.547Z,23.67
2023-04-11T08:23:42.671Z,24.00
2023-04-11T08:26:12.116Z,24.50
2023-04-11T08:28:42.807Z,25.00
2023-04-11T08:31:13.321Z,28.00
2023-04-11T08:33:40.546Z,22.00
2023-04-11T08:36:11.411Z,28.67
2023-04-11T08:38:40.778Z,25.33
2023-04-11T08:41:08.345Z,21.00
2023-04-11T08:43:41.769Z,22.00
2023-04-11T08:46:09.011Z,22.00
2023-04-11T08:48:36.254Z,20.00
2023-04-11T08:51:03.172Z,24.50
2023-04-11T08:53:32.308Z,17.67
2023-04-11T08:56:00.082Z,17.67
2023-04-11T08:58:27.002Z,18.50
2023-04-11T09:00:54.712Z,19.00
2023-04-11T09:03:22.491Z,14.33
2023-04-11T09:05:49.861Z,17.50
2023-04-11T09:08:17.521Z,14.00
2023-04-11T09:10:46.339Z,22.33
2023-04-11T09:13:23.671Z,15.00
2023-04-11T09:16:10.071Z,24.50
2023-04-11T09:18:46.500Z,23.33
2023-04-11T09:21:15.850Z,24.50
2023-04-11T09:23:43.617Z,18.50
2023-04-11T09:26:13.338Z,24.33
2023-04-11T09:28:53.702Z,26.50
2023-04-11T09:31:40.460Z,26.00
2023-04-11T09:34:07.459Z,21.50
2023-04-11T09:36:35.437Z,25.67
2023-04-11T09:39:17.469Z,22.00
2023-04-11T09:41:44.673Z,23.00
2023-04-11T09:44:13.553Z,22.67
2023-04-11T09:46:57.850Z,24.50
2023-04-11T09:49:25.970Z,27.00
2023-04-11T09:51:55.864Z,30.67
2023-04-11T09:54:24.933Z,24.50
2023-04-11T09:56:53.641Z,24.33
2023-04-11T09:59:23.742Z,24.67
2023-04-11T10:01:53.409Z,27.00
2023-04-11T10:04:22.856Z,19.33
2023-04-11T10:07:02.516Z,23.00
2023-04-11T10:09:32.660Z,26.67
2023-04-11T10:12:00.615Z,25.50
2023-04-11T10:14:37.472Z,26.00
2023-04-11T10:17:16.923Z,27.33
2023-04-11T10:19:48.854Z,21.67
2023-04-11T10:22:49.019Z,25.50
2023-04-11T10:25:20.491Z,26.00
2023-04-11T10:27:54.067Z,35.33
2023-04-11T10:31:02.063Z,31.00
2023-04-11T10:33:32.232Z,27.50
2023-04-11T10:36:11.753Z,23.67
2023-04-11T10:38:41.028Z,24.67
2023-04-11T10:41:32.030Z,24.67
2023-04-11T10:44:24.983Z,30.33
2023-04-11T10:46:55.471Z,33.00
2023-04-11T10:49:35.362Z,28.00
2023-04-11T10:52:22.878Z,24.00
2023-04-11T10:54:53.887Z,25.33
2023-04-11T10:57:23.145Z,24.67
2023-04-11T10:59:51.815Z,26.67
2023-04-11T11:02:22.087Z,28.67
2023-04-11T11:04:51.623Z,24.33
2023-04-11T11:07:20.207Z,30.67
2023-04-11T11:09:51.414Z,29.00
2023-04-11T11:12:19.382Z,29.00
2023-04-11T11:14:48.114Z,23.67
2023-04-11T11:17:17.377Z,22.67
2023-04-11T11:19:49.073Z,26.33
2023-04-11T11:22:26.635Z,23.67
2023-04-11T11:24:55.259Z,24.33
2023-04-11T11:27:25.258Z,23.00
2023-04-11T11:29:54.394Z,29.67
2023-04-11T11:32:26.687Z,24.33
2023-04-11T11:34:54.056Z,20.00
2023-04-11T11:37:22.019Z,28.00
2023-04-11T11:39:50.600Z,19.00
2023-04-11T11:42:18.829Z,21.50
2023-04-11T11:44:46.522Z,21.00
2023-04-11T11:47:17.382Z,28.00
2023-04-11T11:49:52.449Z,22.00
2023-04-11T11:52:40.115Z,31.00
2023-04-11T11:55:28.771Z,25.00
2023-04-11T11:58:02.229Z,22.67
2023-04-11T12:00:34.890Z,19.00
2023-04-11T12:03:05.019Z,23.67
2023-04-11T12:05:35.221Z,23.00
2023-04-11T12:08:05.123Z,18.67
2023-04-11T12:10:42.114Z,28.33
2023-04-11T12:13:25.481Z,18.00
2023-04-11T12:16:04.447Z,24.00
2023-04-11T12:18:33.688Z,23.00
2023-04-11T12:21:02.234Z,25.33
2023-04-11T12:23:29.886Z,22.50
2023-04-11T12:25:58.067Z,23.50
2023-04-11T12:28:26.843Z,29.33
2023-04-11T12:30:54.576Z,20.00
2023-04-11T12:33:23.446Z,23.33
2023-04-11T12:35:51.286Z,20.67
2023-04-11T12:38:19.963Z,23.00
2023-04-11T12:40:48.436Z,22.67
2023-04-11T12:43:16.389Z,31.33
2023-04-11T12:45:44.106Z,28.00
2023-04-11T12:48:12.638Z,32.67
2023-04-11T12:50:41.354Z,39.50
2023-04-11T12:53:09.908Z,27.33
2023-04-11T12:55:37.804Z,26.67
2023-04-11T12:58:08.373Z,26.33
2023-04-11T13:00:36.070Z,22.00
2023-04-11T13:03:04.962Z,22.00
2023-04-11T13:05:33.761Z,20.33
2023-04-11T13:08:02.734Z,24.67
2023-04-11T13:10:33.194Z,20.57
2023-04-11T13:13:11.864Z,25.00
2023-04-11T13:15:44.917Z,21.00
2023-04-11T13:18:13.136Z,21.67
2023-04-11T13:20:42.701Z,19.33
2023-04-11T13:23:11.644Z,20.00
2023-04-11T13:25:40.178Z,20.00
2023-04-11T13:28:09.200Z,29.67
2023-04-11T13:30:37.831Z,23.67
2023-04-11T13:33:05.611Z,23.00
2023-04-11T13:35:33.479Z,21.50
2023-04-11T13:38:03.097Z,19.00
2023-04-11T13:40:31.885Z,19.33
2023-04-11T13:43:00.558Z,24.00
2023-04-11T13:45:28.373Z,19.00
2023-04-11T13:47:55.304Z,17.00
2023-04-11T13:50:24.492Z,21.00
2023-04-11T13:52:53.114Z,21.33
2023-04-11T13:55:21.250Z,20.00
2023-04-11T13:57:50.065Z,19.67
2023-04-11T14:00:20.963Z,22.67
2023-04-11T14:02:50.335Z,20.33
2023-04-11T14:05:20.492Z,25.67
2023-04-11T14:07:49.868Z,28.33
2023-04-11T14:10:18.491Z,22.00
2023-04-11T14:12:46.240Z,22.00
2023-04-11T14:15:14.141Z,24.00
2023-04-11T14:17:44.132Z,24.00
2023-04-11T14:20:11.883Z,23.50
2023-04-11T14:22:43.171Z,22.67
2023-04-11T14:25:11.791Z,23.67
2023-04-11T14:27:41.649Z,30.33
2023-04-11T14:30:10.248Z,16.00
2023-04-11T14:32:38.413Z,13.67
2023-04-11T14:35:09.518Z,21.33
2023-04-11T14:37:38.479Z,22.67
2023-04-11T14:40:07.330Z,22.00
2023-04-11T14:42:35.098Z,24.33
2023-04-11T14:45:02.988Z,20.50
2023-04-11T14:47:32.683Z,20.33
2023-04-11T14:49:59.642Z,22.50
2023-04-11T14:52:28.630Z,26.00
2023-04-11T14:54:57.387Z,27.00
2023-04-11T14:57:24.870Z,19.00
2023-04-11T14:59:53.496Z,22.00
2023-04-11T15:02:21.599Z,18.00
2023-04-11T15:04:49.554Z,26.67
2023-04-11T15:07:17.816Z,24.50
2023-04-11T15:09:46.609Z,22.67
2023-04-11T15:12:17.240Z,23.86
2023-04-11T15:14:45.029Z,22.00
2023-04-11T15:17:12.594Z,25.33
2023-04-11T15:19:41.180Z,19.33
2023-04-11T15:22:08.787Z,23.33
2023-04-11T15:24:37.567Z,23.00
2023-04-11T15:27:06.370Z,27.00
2023-04-11T15:29:36.270Z,27.67
2023-04-11T15:32:04.136Z,21.50
2023-04-11T15:34:32.636Z,28.33
2023-04-11T15:37:00.441Z,23.00
2023-04-11T15:39:28.943Z,25.67
2023-04-11T15:41:57.326Z,17.67
2023-04-11T15:44:25.078Z,22.50
2023-04-11T15:46:53.084Z,23.00
2023-04-11T15:49:22.416Z,25.33
2023-04-11T15:51:51.291Z,18.67
2023-04-11T15:54:19.066Z,20.50
2023-04-11T15:56:45.797Z,16.50
2023-04-11T15:59:15.797Z,27.67
2023-04-11T16:01:44.029Z,23.00
2023-04-11T16:04:12.142Z,21.67
2023-04-11T16:06:39.915Z,18.33
2023-04-11T16:09:09.100Z,21.67
2023-04-11T16:11:40.023Z,28.67
2023-04-11T16:14:07.944Z,19.33
2023-04-11T16:16:34.732Z,21.00
2023-04-11T16:19:01.968Z,20.00
2023-04-11T16:21:28.812Z,19.00
2023-04-11T16:23:56.872Z,23.50
2023-04-11T16:26:25.532Z,20.00
2023-04-11T16:28:54.296Z,24.67
2023-04-11T16:31:25.060Z,24.33
2023-04-11T16:33:53.325Z,20.50
2023-04-11T16:36:22.314Z,21.50
2023-04-11T16:38:51.539Z,30.33
2023-04-11T16:41:19.468Z,21.00
2023-04-11T16:43:48.069Z,28.67
2023-04-11T16:46:16.321Z,19.00
2023-04-11T16:48:45.062Z,24.00
2023-04-11T16:51:13.984Z,15.33
2023-04-11T16:53:42.247Z,19.50
2023-04-11T16:56:10.022Z,20.00
2023-04-11T16:58:37.943Z,16.67
2023-04-11T17:01:05.055Z,16.00
2023-04-11T17:03:35.537Z,22.50
2023-04-11T17:06:02.694Z,20.00
2023-04-11T17:08:33.563Z,20.67
2023-04-11T17:11:09.278Z,20.00
2023-04-11T17:13:41.838Z,22.00
2023-04-11T17:16:10.486Z,21.67
2023-04-11T17:18:38.721Z,22.00
2023-04-11T17:21:06.297Z,15.50
2023-04-11T17:23:42.420Z,12.50
2023-04-11T17:26:11.770Z,13.33
2023-04-11T17:28:41.034Z,18.33
2023-04-11T17:31:15.889Z,17.33
2023-04-11T17:33:43.003Z,9.00
2023-04-11T17:36:12.786Z,18.00
2023-04-11T17:38:42.366Z,14.00
2023-04-11T17:43:39.236Z,17.00
2023-04-11T17:46:09.219Z,13.00
2023-04-11T17:48:36.842Z,17.00
2023-04-11T17:51:05.916Z,14.67
2023-04-11T17:53:36.118Z,22.00
2023-04-11T17:56:06.160Z,23.00
2023-04-11T17:58:34.763Z,14.00
2023-04-11T18:01:05.494Z,14.67
2023-04-11T18:03:35.639Z,23.00
2023-04-11T18:06:03.755Z,19.00
2023-04-11T18:08:48.992Z,18.33
2023-04-11T18:11:20.303Z,15.50
2023-04-11T18:13:50.043Z,16.00
2023-04-11T18:16:18.735Z,15.33
2023-04-11T18:18:48.268Z,13.60
2023-04-11T18:21:16.622Z,13.00
2023-04-11T18:23:44.242Z,10.00
2023-04-11T18:26:10.983Z,7.00
2023-04-11T18:28:38.053Z,9.00
2023-04-11T18:31:05.902Z,4.25
2023-04-11T18:33:34.640Z,6.50
2023-04-11T18:36:02.311Z,2.50
2023-04-11T18:38:28.970Z,7.00
2023-04-11T18:40:57.190Z,2.00
2023-04-11T18:43:25.008Z,3.00
2023-04-11T18:45:53.043Z,2.00
2023-04-11T18:48:19.910Z,5.50
2023-04-11T18:50:48.786Z,4.00
2023-04-11T18:53:16.019Z,3.00
2023-04-11T18:55:42.932Z,3.00
2023-04-11T18:58:13.500Z,2.00
2023-04-11T19:00:43.628Z,5.00
2023-04-11T19:03:16.242Z,6.00
2023-04-11T19:05:45.440Z,5.75
2023-04-11T19:08:15.092Z,3.00
2023-04-11T19:10:41.926Z,2.00
2023-04-11T19:13:10.206Z,4.00
2023-04-11T19:15:37.066Z,2.00
2023-04-11T19:18:04.005Z,3.00
2023-04-11T19:20:33.130Z,3.00
2023-04-11T19:23:01.328Z,5.00
2023-04-11T19:25:29.793Z,2.00
2023-04-11T19:27:57.471Z,2.50
2023-04-11T19:30:25.060Z,3.50
2023-04-11T19:32:52.204Z,2.50
2023-04-11T19:35:21.757Z,5.00
2023-04-11T19:37:49.524Z,2.75
2023-04-11T19:40:18.435Z,2.50
2023-04-11T19:42:46.297Z,3.75
2023-04-11T19:45:13.241Z,6.00
2023-04-11T19:47:41.635Z,7.00
2023-04-11T19:50:13.426Z,5.25
2023-04-11T19:52:42.398Z,5.50
2023-04-11T19:55:11.880Z,8.00
2023-04-11T19:57:39.437Z,13.50
2023-04-11T20:00:17.555Z,6.25
2023-04-11T20:02:46.703Z,12.00
2023-04-11T20:05:19.827Z,11.00
2023-04-11T20:07:47.019Z,6.00
2023-04-11T20:10:16.278Z,4.50
2023-04-11T20:12:44.140Z,7.75
2023-04-11T20:15:12.000Z,6.00
2023-04-11T20:17:42.751Z,8.33
2023-04-11T20:20:12.369Z,10.00
2023-04-11T20:22:41.237Z,13.00
2023-04-11T20:25:13.492Z,13.40
2023-04-11T20:27:43.061Z,11.20
2023-04-11T20:30:10.955Z,10.50
2023-04-11T20:32:41.666Z,14.00
2023-04-11T20:35:10.115Z,12.00
2023-04-11T20:37:40.197Z,13.33
2023-04-11T20:40:09.941Z,20.00
2023-04-11T20:42:45.770Z,14.00
2023-04-11T20:45:16.290Z,9.25
2023-04-11T20:47:50.304Z,14.00
2023-04-11T20:50:17.855Z,13.50
2023-04-11T20:52:47.673Z,11.50
2023-04-11T20:55:14.618Z,10.50
2023-04-11T20:57:44.778Z,9.60
2023-04-11T21:00:15.218Z,14.00
2023-04-11T21:02:44.590Z,11.50
2023-04-11T21:05:13.694Z,9.75
2023-04-11T21:07:42.309Z,12.50
2023-04-11T21:10:12.395Z,14.00
2023-04-11T21:12:41.753Z,13.00
2023-04-11T21:15:11.863Z,14.60
2023-04-11T21:17:39.822Z,6.00
2023-04-11T21:20:18.065Z,10.71
2023-04-11T21:22:47.866Z,13.67
2023-04-11T21:25:18.744Z,13.29
2023-04-11T21:27:46.894Z,12.00
2023-04-11T21:30:14.711Z,13.00
2023-04-11T21:32:45.197Z,12.29
2023-04-11T21:35:12.745Z,11.00
2023-04-11T21:37:39.797Z,9.00
2023-04-11T21:40:07.984Z,16.25
2023-04-11T21:42:35.681Z,12.25
2023-04-11T21:45:02.474Z,9.67
2023-04-11T21:47:30.133Z,6.50
2023-04-11T21:49:56.813Z,8.00
2023-04-11T21:52:23.771Z,11.00
2023-04-11T21:54:50.718Z,6.00
2023-04-11T21:57:17.531Z,8.00
2023-04-11T21:59:45.473Z,8.50
2023-04-11T22:02:13.211Z,7.00
2023-04-11T22:04:55.756Z,11.00
2023-04-11T22:07:31.635Z,11.50
2023-04-11T22:10:09.310Z,13.00
2023-04-11T22:12:37.464Z,4.75
2023-04-11T22:15:06.562Z,9.20
2023-04-11T22:17:33.305Z,11.00
2023-04-11T22:20:00.360Z,8.00
2023-04-11T22:22:30.526Z,14.00
2023-04-11T22:25:00.470Z,12.00
2023-04-11T22:27:27.530Z,13.00
2023-04-11T22:29:57.717Z,8.00
2023-04-11T22:32:24.532Z,11.00
2023-04-11T22:34:51.333Z,16.50
2023-04-11T22:37:18.901Z,10.75
2023-04-11T22:39:45.896Z,15.00
2023-04-11T22:42:12.851Z,13.00
2023-04-11T22:44:39.813Z,13.00
2023-04-11T22:47:11.489Z,11.50
2023-04-11T22:49:41.294Z,14.50
2023-04-11T22:52:14.434Z,15.60
2023-04-11T22:54:43.352Z,13.20
2023-04-11T22:57:10.370Z,12.00
2023-04-11T22:59:37.170Z,8.50
2023-04-11T23:02:05.081Z,12.50
2023-04-11T23:04:32.438Z,11.00
2023-04-11T23:07:00.228Z,6.50
2023-04-11T23:09:28.542Z,8.25
2023-04-11T23:11:56.638Z,8.00
2023-04-11T23:14:31.155Z,5.00
2023-04-11T23:16:58.419Z,2.67
2023-04-11T23:19:27.363Z,4.00
2023-04-11T23:21:54.214Z,2.00
2023-04-11T23:24:21.169Z,2.00
2023-04-11T23:26:48.022Z,2.00
2023-04-11T23:29:15.134Z,0.00
2023-04-11T23:31:43.422Z,2.00
2023-04-11T23:34:10.555Z,0.00
2023-04-11T23:36:37.762Z,0.33
2023-04-11T23:39:05.667Z,2.00
2023-04-11T23:41:32.535Z,2.00
2023-04-11T23:43:59.698Z,0.67
2023-04-11T23:46:27.853Z,1.00
2023-04-11T23:48:55.200Z,1.00
2023-04-11T23:51:22.839Z,1.00
2023-04-11T23:53:50.334Z,2.00
2023-04-11T23:56:18.979Z,1.00
2023-04-11T23:58:46.654Z,0.00
